Time;durP1;ratioP1;P1;durP2;ratioP2;P2;SDS_P1;SDS_P2;PMS_P1;PMS_P2;Temp;Humidity;BMP_temperature;BMP_pressure;BME280_temperature;BME280_humidity;BME280_pressure;Samples;Min_cycle;Max_cycle;Signal;HPM_P1;HPM_P2
2022/10/29 00:01:12;;;;;;;;;55.25;45.75;;;;;16.54;71.42;100520.16;5071621;28;9648;-76
2022/10/29 00:03:46;;;;;;;;;55.25;45.25;;;;;16.73;70.49;100518.25;5089600;28;8852;-77
2022/10/29 00:06:14;;;;;;;;;55.25;44.75;;;;;17.00;69.32;100514.47;5089493;28;8904;-73
2022/10/29 00:08:43;;;;;;;;;58.75;47.25;;;;;17.17;67.65;100522.19;5089400;28;8876;-76
2022/10/29 00:11:15;;;;;;;;;62.00;49.00;;;;;17.38;66.78;100509.63;5082851;28;9607;-75
2022/10/29 00:13:45;;;;;;;;;65.50;52.25;;;;;17.46;65.42;100507.75;5068945;28;8854;-74
2022/10/29 00:16:16;;;;;;;;;63.75;49.75;;;;;17.53;64.92;100512.91;5067204;28;8866;-74
2022/10/29 00:18:46;;;;;;;;;62.75;50.50;;;;;17.67;64.36;100514.50;5083156;28;8893;-75
2022/10/29 00:21:17;;;;;;;;;62.75;49.75;;;;;17.72;63.56;100512.66;5087464;28;8847;-75
2022/10/29 00:23:46;;;;;;;;;62.75;48.50;;;;;17.79;63.27;100506.41;5088612;28;8936;-74
2022/10/29 00:26:16;;;;;;;;;57.50;47.25;;;;;17.81;63.24;100504.63;5088757;28;8840;-73
2022/10/29 00:28:45;;;;;;;;;62.50;50.50;;;;;17.85;62.95;100500.22;5088510;28;8847;-77
2022/10/29 00:31:17;;;;;;;;;61.00;49.00;;;;;17.88;62.48;100498.41;5083016;28;8842;-75
2022/10/29 00:33:47;;;;;;;;;59.50;48.00;;;;;17.89;62.53;100504.53;5099920;27;8974;-75
2022/10/29 00:36:17;;;;;;;;;60.50;48.75;;;;;17.89;62.33;100502.75;5068973;28;8846;-75
2022/10/29 00:38:46;;;;;;;;;63.75;51.25;;;;;17.89;62.65;100502.75;5068816;28;8986;-75
2022/10/29 00:41:16;;;;;;;;;54.75;42.25;;;;;17.86;62.20;100504.56;5071587;28;8830;-75
2022/10/29 00:43:49;;;;;;;;;60.50;49.00;;;;;17.88;62.05;100503.69;5051523;28;8850;-74
2022/10/29 00:46:24;;;;;;;;;58.00;46.25;;;;;17.87;61.86;100509.84;5068068;28;8846;-73
2022/10/29 00:48:56;;;;;;;;;59.00;47.00;;;;;17.87;62.00;100507.19;5066622;28;8870;-76
2022/10/29 00:51:25;;;;;;;;;62.75;48.25;;;;;17.86;61.94;100500.19;5067464;28;8842;-75
2022/10/29 00:53:57;;;;;;;;;62.50;51.25;;;;;17.86;62.11;100496.66;5067291;28;8961;-76
2022/10/29 00:56:29;;;;;;;;;63.75;50.50;;;;;17.88;61.82;100501.03;5068274;28;8976;-73
2022/10/29 00:58:58;;;;;;;;;60.50;48.75;;;;;17.88;61.78;100500.16;5072403;28;8868;-78
2022/10/29 01:01:26;;;;;;;;;63.25;48.25;;;;;17.87;61.82;100501.91;5070701;28;9941;-73
2022/10/29 01:03:58;;;;;;;;;61.25;48.75;;;;;17.89;61.73;100496.63;5087394;28;8840;-77
2022/10/29 01:06:30;;;;;;;;;63.25;47.50;;;;;17.86;61.87;100501.94;5087154;28;8851;-75
2022/10/29 01:08:59;;;;;;;;;60.50;49.00;;;;;17.84;61.55;100495.78;5088046;28;8848;-73
2022/10/29 01:11:39;;;;;;;;;60.25;49.00;;;;;17.87;61.12;100501.91;5120964;28;8852;-77
2022/10/29 01:14:23;;;;;;;;;56.25;46.75;;;;;17.90;61.02;100488.69;5069009;28;8842;-76
2022/10/29 01:17:00;;;;;;;;;59.75;47.00;;;;;17.84;60.47;100490.50;5068353;28;8873;-76
2022/10/29 01:19:49;;;;;;;;;56.50;45.50;;;;;17.85;60.17;100485.25;5068313;28;9685;-80
2022/10/29 01:22:25;;;;;;;;;58.25;47.75;;;;;17.74;60.97;100482.72;5058729;28;8946;-74
2022/10/29 01:25:32;;;;;;;;;56.75;46.00;;;;;17.84;60.77;100483.47;5067761;28;8842;-74
2022/10/29 01:28:13;;;;;;;;;63.50;51.25;;;;;17.76;60.75;100489.75;5004757;28;8862;-76
2022/10/29 01:31:12;;;;;;;;;67.00;53.50;;;;;17.79;60.79;100487.06;5005855;28;9623;-75
2022/10/29 01:33:51;;;;;;;;;66.25;53.50;;;;;17.68;60.67;100487.22;4963557;28;8972;-72
2022/10/29 01:36:29;;;;;;;;;63.00;50.75;;;;;17.64;60.26;100483.78;5010301;28;8847;-76
2022/10/29 01:39:06;;;;;;;;;60.75;49.50;;;;;17.56;60.22;100477.75;5024990;28;8890;-75
2022/10/29 01:41:43;;;;;;;;;62.75;49.25;;;;;17.53;60.72;100480.41;5039916;28;8832;-77
2022/10/29 01:44:21;;;;;;;;;65.75;52.50;;;;;17.45;61.16;100479.66;5024758;28;8880;-74
2022/10/29 01:46:55;;;;;;;;;63.50;50.00;;;;;17.43;60.96;100473.50;5021538;28;8886;-74
2022/10/29 01:49:29;;;;;;;;;62.00;49.00;;;;;17.41;60.89;100476.19;4974061;28;8850;-76
2022/10/29 01:52:00;;;;;;;;;55.25;46.00;;;;;17.37;61.09;100476.22;5007324;28;8854;-77
2022/10/29 01:54:29;;;;;;;;;62.75;49.50;;;;;17.36;61.01;100478.00;5024958;28;8886;-76
2022/10/29 01:56:59;;;;;;;;;64.50;49.75;;;;;17.29;61.05;100476.34;5024982;28;8860;-74
2022/10/29 01:59:31;;;;;;;;;62.75;50.00;;;;;17.28;61.22;100477.25;5028191;28;8864;-74
2022/10/29 02:02:28;;;;;;;;;62.50;51.25;;;;;17.31;61.04;100466.63;5028659;28;8828;-75
2022/10/29 02:05:09;;;;;;;;;61.75;51.25;;;;;17.28;61.44;100472.84;5063483;28;10171;-75
2022/10/29 02:07:46;;;;;;;;;63.00;49.25;;;;;17.25;61.64;100466.72;5072442;28;8855;-77
2022/10/29 02:10:22;;;;;;;;;65.00;51.50;;;;;17.25;61.87;100469.38;5087138;28;9588;-77
2022/10/29 02:12:53;;;;;;;;;66.50;53.00;;;;;17.18;61.53;100463.28;5091253;28;8839;-76
2022/10/29 02:15:27;;;;;;;;;60.25;49.25;;;;;17.19;61.76;100466.81;5091217;28;8852;-75
2022/10/29 02:18:01;;;;;;;;;63.25;51.50;;;;;17.17;61.78;100458.91;5091009;28;8968;-76
2022/10/29 02:20:30;;;;;;;;;62.25;50.75;;;;;17.12;61.34;100468.63;5091375;28;9658;-77
2022/10/29 02:22:59;;;;;;;;;62.50;49.75;;;;;17.12;61.24;100466.00;5091340;28;8997;-78
2022/10/29 02:25:28;;;;;;;;;60.50;49.00;;;;;17.11;61.37;100477.47;5091381;28;8855;-77
2022/10/29 02:27:59;;;;;;;;;59.50;49.00;;;;;17.09;60.65;100466.94;5074171;28;8869;-75
2022/10/29 02:30:28;;;;;;;;;61.75;49.75;;;;;17.06;61.15;100477.50;5072644;28;8877;-74
2022/10/29 02:32:57;;;;;;;;;50.25;41.25;;;;;17.01;61.42;100473.16;5073643;28;8870;-74
2022/10/29 02:35:27;;;;;;;;;54.00;44.00;;;;;16.98;61.38;100470.59;5071376;28;8903;-76
2022/10/29 02:37:55;;;;;;;;;58.25;47.75;;;;;16.98;61.44;100470.59;5070176;28;8902;-74
2022/10/29 02:40:24;;;;;;;;;59.25;48.50;;;;;16.97;60.92;100466.19;5051861;28;8854;-76
2022/10/29 02:42:55;;;;;;;;;56.75;47.75;;;;;16.98;60.79;100458.28;5070417;28;8870;-76
2022/10/29 02:45:24;;;;;;;;;55.75;46.00;;;;;16.91;60.68;100456.59;5070924;28;8857;-74
2022/10/29 02:47:53;;;;;;;;;54.25;43.25;;;;;16.89;61.37;100450.47;5070088;28;8847;-76
2022/10/29 02:50:22;;;;;;;;;62.25;49.50;;;;;16.90;60.78;100454.84;5070840;28;8973;-76
2022/10/29 02:52:51;;;;;;;;;59.75;48.50;;;;;16.86;61.10;100456.66;5070146;28;8854;-75
2022/10/29 02:55:20;;;;;;;;;59.75;48.00;;;;;16.80;60.99;100461.94;5086388;28;8963;-74
2022/10/29 02:57:49;;;;;;;;;61.50;49.75;;;;;16.77;60.99;100462.00;5090341;28;8890;-78
2022/10/29 03:00:18;;;;;;;;;65.25;50.50;;;;;16.76;61.01;100461.13;5087957;28;8852;-77
2022/10/29 03:02:51;;;;;;;;;61.75;49.75;;;;;16.77;60.72;100465.50;5084349;28;9641;-75
2022/10/29 03:05:19;;;;;;;;;60.50;49.75;;;;;16.73;60.43;100461.16;5090264;28;8966;-74
2022/10/29 03:07:48;;;;;;;;;61.25;48.50;;;;;16.72;60.80;100467.31;5088700;28;8863;-73
2022/10/29 03:10:18;;;;;;;;;63.25;51.25;;;;;16.72;60.43;100463.81;5089874;28;8847;-74
2022/10/29 03:12:46;;;;;;;;;66.75;54.00;;;;;16.68;60.38;100465.59;5090188;28;9652;-75
2022/10/29 03:15:15;;;;;;;;;66.25;52.00;;;;;16.71;60.90;100462.06;5054275;28;8839;-75
2022/10/29 03:17:43;;;;;;;;;60.50;48.50;;;;;16.67;60.69;100466.50;5089577;28;8844;-75
2022/10/29 03:20:12;;;;;;;;;58.75;46.75;;;;;16.68;60.43;100457.69;5090368;28;8878;-74
2022/10/29 03:22:40;;;;;;;;;70.25;55.00;;;;;16.66;59.72;100464.75;5090863;28;8848;-75
2022/10/29 03:25:10;;;;;;;;;67.00;52.75;;;;;16.65;59.91;100464.75;5055354;28;8932;-73
2022/10/29 03:27:42;;;;;;;;;68.50;55.00;;;;;16.68;60.31;100464.75;5090811;28;8840;-75
2022/10/29 03:30:12;;;;;;;;;59.25;48.75;;;;;16.61;60.00;100453.38;5072550;28;8869;-73
2022/10/29 03:32:41;;;;;;;;;57.75;47.00;;;;;16.58;60.13;100463.97;5102225;28;9445;-75
2022/10/29 03:35:11;;;;;;;;;63.25;50.00;;;;;16.57;60.34;100451.69;5067460;28;8838;-74
2022/10/29 03:37:41;;;;;;;;;62.50;48.00;;;;;16.57;60.28;100451.69;5069803;28;8866;-77
2022/10/29 03:40:10;;;;;;;;;59.75;48.50;;;;;16.50;60.00;100448.25;5069494;28;8869;-74
2022/10/29 03:42:38;;;;;;;;;58.00;47.25;;;;;16.50;60.41;100445.63;5069338;28;8846;-74
2022/10/29 03:45:10;;;;;;;;;53.50;46.00;;;;;16.49;60.05;100449.13;5069392;28;8866;-78
2022/10/29 03:47:38;;;;;;;;;63.25;51.25;;;;;16.50;59.63;100450.00;5033813;28;8846;-76
2022/10/29 03:50:08;;;;;;;;;61.25;49.25;;;;;16.43;59.79;100448.34;5050563;28;8994;-72
2022/10/29 03:52:36;;;;;;;;;58.00;47.25;;;;;16.42;59.95;100450.06;5068756;28;8890;-74
2022/10/29 03:55:06;;;;;;;;;58.75;47.75;;;;;16.40;60.47;100451.84;5068919;28;8865;-76
2022/10/29 03:57:35;;;;;;;;;55.50;46.50;;;;;16.37;60.23;100455.41;5069103;28;8882;-77
2022/10/29 04:00:04;;;;;;;;;10.25;6.75;;;;;16.35;60.42;100454.53;5067377;28;8882;-73
2022/10/29 04:02:41;;;;;;;;;72.00;56.50;;;;;16.32;60.13;100457.19;5068995;28;8869;-76
2022/10/29 04:05:10;;;;;;;;;60.75;49.00;;;;;16.31;60.28;100451.94;5068533;28;9100;-74
2022/10/29 04:07:38;;;;;;;;;67.50;54.00;;;;;16.30;60.71;100450.22;5067810;28;8903;-75
2022/10/29 04:10:07;;;;;;;;;66.25;52.00;;;;;16.26;60.44;100449.34;5068236;28;8850;-74
2022/10/29 04:12:36;;;;;;;;;64.50;52.50;;;;;16.21;60.47;100445.88;5013332;28;8858;-74
2022/10/29 04:15:05;;;;;;;;;88.75;81.25;;;;;16.23;60.66;100445.88;5046377;28;8939;-75
2022/10/29 04:17:34;;;;;;;;;72.67;56.67;;;;;16.18;60.79;100449.44;5048676;28;10509;-74
2022/10/29 04:20:04;;;;;;;;;103.25;94.00;;;;;16.15;60.80;100453.84;5030442;28;9017;-74
2022/10/29 04:22:51;;;;;;;;;69.00;55.33;;;;;16.13;61.01;100451.22;5013047;28;11290;-74
2022/10/29 04:25:39;;;;;;;;;64.25;50.50;;;;;16.13;60.87;100450.34;5010741;28;9063;-75
2022/10/29 04:28:27;;;;;;;;;58.75;46.25;;;;;16.15;60.64;100461.75;5066008;28;8970;-76
2022/10/29 04:31:12;;;;;;;;;59.50;46.50;;;;;16.15;60.92;100462.59;5066054;28;9629;-76
2022/10/29 04:33:41;;;;;;;;;52.75;42.00;;;;;16.18;60.66;100459.06;5017287;28;9003;-73
2022/10/29 04:36:11;;;;;;;;;52.00;44.00;;;;;16.14;60.83;100450.34;5003493;28;8845;-75
2022/10/29 04:38:39;;;;;;;;;58.25;43.75;;;;;16.14;60.64;100457.34;4997148;28;8877;-75
2022/10/29 04:41:08;;;;;;;;;55.00;45.00;;;;;16.14;60.56;100458.25;5045731;28;8874;-74
2022/10/29 04:43:37;;;;;;;;;52.00;40.75;;;;;16.13;60.30;100461.75;5065937;28;9697;-76
2022/10/29 04:46:05;;;;;;;;;50.25;42.00;;;;;16.12;60.66;100462.66;5088375;28;8864;-74
2022/10/29 04:48:34;;;;;;;;;50.00;42.00;;;;;16.12;60.49;100460.03;5088608;28;8840;-74
2022/10/29 04:51:02;;;;;;;;;46.50;40.00;;;;;16.10;60.76;100453.00;5052577;28;9005;-76
2022/10/29 04:53:32;;;;;;;;;51.25;41.50;;;;;16.13;60.76;100447.72;5087997;28;9669;-75
2022/10/29 04:56:04;;;;;;;;;56.75;45.75;;;;;16.09;61.15;100454.78;5068031;28;8850;-74
2022/10/29 04:58:32;;;;;;;;;50.50;42.00;;;;;16.08;60.83;100452.16;5066480;28;8882;-76
2022/10/29 05:01:01;;;;;;;;;55.00;44.00;;;;;16.07;60.90;100455.69;5074809;28;8867;-76
2022/10/29 05:03:30;;;;;;;;;56.00;46.00;;;;;16.04;60.87;100453.94;5088256;28;8848;-75
2022/10/29 05:05:59;;;;;;;;;62.50;49.00;;;;;15.94;61.29;100452.28;5086874;28;9609;-76
2022/10/29 05:08:27;;;;;;;;;66.75;52.25;;;;;15.73;61.57;100459.44;5088361;28;8859;-75
2022/10/29 05:10:57;;;;;;;;;64.00;51.50;;;;;15.65;62.07;100458.59;5089713;28;8839;-74
2022/10/29 05:13:25;;;;;;;;;63.50;47.75;;;;;15.52;62.33;100455.16;5093286;28;8835;-74
2022/10/29 05:15:54;;;;;;;;;54.50;45.00;;;;;15.62;62.12;100455.09;5089160;28;8839;-74
2022/10/29 05:18:23;;;;;;;;;56.75;46.50;;;;;15.70;61.75;100461.19;5073298;28;8866;-75
2022/10/29 05:20:53;;;;;;;;;56.50;47.00;;;;;15.76;61.57;100461.16;5067667;28;8874;-73
2022/10/29 05:23:22;;;;;;;;;62.75;49.75;;;;;15.84;61.05;100467.25;5067350;28;8854;-73
2022/10/29 05:25:51;;;;;;;;;60.25;49.00;;;;;15.87;60.74;100467.22;5064823;28;8843;-75
2022/10/29 05:28:23;;;;;;;;;60.00;48.75;;;;;15.93;60.44;100463.66;5008259;28;8845;-75
2022/10/29 05:30:53;;;;;;;;;54.25;45.00;;;;;15.95;60.68;100470.69;5024971;28;9063;-75
2022/10/29 05:33:24;;;;;;;;;58.25;48.25;;;;;15.98;60.53;100472.41;5037701;28;8965;-73
2022/10/29 05:35:53;;;;;;;;;56.75;47.75;;;;;16.02;60.39;100476.75;5049178;28;8958;-77
2022/10/29 05:38:21;;;;;;;;;55.25;45.00;;;;;16.03;59.97;100475.88;5049181;28;8843;-73
2022/10/29 05:40:50;;;;;;;;;58.00;46.75;;;;;16.07;59.90;100484.63;5042678;28;8864;-77
2022/10/29 05:43:19;;;;;;;;;52.00;44.00;;;;;16.11;60.14;100483.72;5028974;28;8830;-73
2022/10/29 05:45:49;;;;;;;;;55.25;44.75;;;;;16.13;59.46;100482.81;5029126;28;9941;-75
2022/10/29 05:48:17;;;;;;;;;56.00;46.25;;;;;16.13;59.69;100490.69;5028655;28;8869;-77
2022/10/29 05:50:46;;;;;;;;;54.00;46.00;;;;;16.14;59.47;100481.94;5030295;28;8907;-73
2022/10/29 05:53:15;;;;;;;;;51.00;43.50;;;;;16.11;59.07;100499.50;5028717;28;8935;-76
2022/10/29 05:55:43;;;;;;;;;52.75;43.75;;;;;16.13;59.38;100492.47;5011978;28;8846;-74
2022/10/29 05:58:13;;;;;;;;;57.75;46.25;;;;;16.04;59.76;100496.03;4988944;28;8886;-75
2022/10/29 06:00:44;;;;;;;;;55.25;45.00;;;;;16.09;59.65;100496.88;5037830;28;8874;-74
2022/10/29 06:03:15;;;;;;;;;59.75;48.50;;;;;16.11;60.05;100503.00;5048604;28;8923;-74
2022/10/29 06:05:46;;;;;;;;;56.50;44.75;;;;;16.15;59.79;100509.09;5049071;28;8878;-76
2022/10/29 06:08:14;;;;;;;;;54.50;44.75;;;;;16.19;59.74;100510.81;5049852;28;8846;-75
2022/10/29 06:10:43;;;;;;;;;55.00;43.25;;;;;16.29;59.75;100519.50;4990107;28;8873;-76
2022/10/29 06:13:12;;;;;;;;;55.50;42.50;;;;;16.33;59.59;100516.84;4989474;28;8992;-75
2022/10/29 06:15:41;;;;;;;;;55.75;43.50;;;;;16.43;59.86;100520.28;4988971;28;8864;-73
2022/10/29 06:18:10;;;;;;;;;54.00;44.00;;;;;16.54;59.35;100514.91;4989055;28;8878;-73
2022/10/29 06:20:40;;;;;;;;;55.25;43.75;;;;;16.64;59.52;100524.47;4939405;28;8912;-75
2022/10/29 06:23:10;;;;;;;;;50.75;39.50;;;;;16.74;59.21;100518.22;4988938;28;8878;-74
2022/10/29 06:25:39;;;;;;;;;54.50;44.50;;;;;16.80;59.13;100513.78;4988878;28;8873;-74
2022/10/29 06:28:10;;;;;;;;;54.00;42.25;;;;;16.88;58.95;100519.84;4956489;28;8877;-76
2022/10/29 06:30:40;;;;;;;;;51.25;43.25;;;;;16.97;58.54;100516.25;5048019;28;8822;-75
2022/10/29 06:33:08;;;;;;;;;50.25;41.25;;;;;17.02;58.36;100517.09;5031459;28;8947;-75
2022/10/29 06:35:37;;;;;;;;;44.00;38.75;;;;;17.13;58.51;100515.22;5030286;28;8833;-75
2022/10/29 06:38:07;;;;;;;;;50.75;40.50;;;;;17.06;58.17;100518.78;4999194;28;8865;-76
2022/10/29 06:40:40;;;;;;;;;53.50;44.00;;;;;17.20;57.90;100513.34;5047551;28;8870;-76
2022/10/29 06:43:11;;;;;;;;;56.00;45.50;;;;;17.29;58.51;100514.09;5117717;27;8951;-74
2022/10/29 06:45:40;;;;;;;;;60.00;47.25;;;;;17.32;58.02;100511.44;5089027;28;9672;-74
2022/10/29 06:48:09;;;;;;;;;57.25;46.50;;;;;17.41;58.05;100513.09;5088836;28;9577;-74
2022/10/29 06:50:38;;;;;;;;;61.75;49.00;;;;;17.49;57.72;100519.13;5090234;28;8974;-73
2022/10/29 06:53:11;;;;;;;;;61.50;49.25;;;;;17.42;57.68;100516.59;5082254;28;9696;-74
2022/10/29 06:55:40;;;;;;;;;58.00;46.50;;;;;17.31;57.90;100524.63;5070633;28;8973;-75
2022/10/29 06:58:12;;;;;;;;;62.25;48.75;;;;;17.09;58.37;100529.31;5070264;28;8960;-75
2022/10/29 07:00:42;;;;;;;;;60.00;48.75;;;;;17.13;58.83;100531.88;5075212;28;8938;-73
2022/10/29 07:03:12;;;;;;;;;59.00;48.75;;;;;17.34;58.76;100537.78;5077205;28;8903;-74
2022/10/29 07:05:41;;;;;;;;;60.25;48.25;;;;;17.53;58.36;100533.16;5069529;28;8870;-74
2022/10/29 07:08:11;;;;;;;;;59.50;49.00;;;;;17.74;57.99;100539.91;5070043;28;8830;-77
2022/10/29 07:10:40;;;;;;;;;58.25;47.25;;;;;17.91;57.55;100534.41;5069841;28;8858;-76
2022/10/29 07:13:09;;;;;;;;;58.50;47.50;;;;;18.09;57.34;100538.53;5070335;28;8846;-76
2022/10/29 07:15:38;;;;;;;;;58.75;48.00;;;;;18.28;56.79;100542.63;5069015;28;8858;-76
2022/10/29 07:18:07;;;;;;;;;62.00;48.00;;;;;18.39;56.63;100539.84;5070013;28;8853;-76
2022/10/29 07:20:39;;;;;;;;;62.00;50.25;;;;;18.53;56.22;100542.22;5069685;28;8834;-76
2022/10/29 07:23:08;;;;;;;;;61.25;49.00;;;;;18.64;56.07;100537.63;5069952;28;8854;-75
2022/10/29 07:25:39;;;;;;;;;62.25;49.75;;;;;18.76;55.91;100543.59;5082387;28;8893;-76
2022/10/29 07:28:11;;;;;;;;;62.50;50.25;;;;;18.65;55.69;100539.34;5076915;28;8969;-74
2022/10/29 07:30:40;;;;;;;;;63.75;51.00;;;;;18.79;55.31;100538.22;5068930;28;8892;-75
2022/10/29 07:33:09;;;;;;;;;64.50;52.25;;;;;18.93;54.98;100538.03;5101774;28;8846;-75
2022/10/29 07:35:38;;;;;;;;;66.33;53.33;;;;;18.91;55.30;100529.25;5069125;28;8984;-76
2022/10/29 07:38:08;;;;;;;;;58.75;46.75;;;;;18.67;56.14;100534.91;5069202;28;9030;-77
2022/10/29 07:40:46;;;;;;;;;63.00;50.00;;;;;18.76;56.48;100538.31;5068813;28;8943;-78
2022/10/29 07:43:15;;;;;;;;;58.50;46.25;;;;;18.62;56.99;100534.16;5067129;28;8866;-73
2022/10/29 07:45:45;;;;;;;;;57.75;47.50;;;;;18.73;56.94;100535.72;5068113;28;8865;-76
2022/10/29 07:48:14;;;;;;;;;59.25;48.75;;;;;18.77;57.11;100538.28;5069123;28;8948;-76
2022/10/29 07:50:42;;;;;;;;;57.75;46.50;;;;;18.76;57.26;100546.25;5068982;28;8984;-75
2022/10/29 07:53:11;;;;;;;;;58.50;47.50;;;;;18.73;57.56;100539.22;5069112;28;8865;-76
2022/10/29 07:55:41;;;;;;;;;54.25;44.25;;;;;18.79;57.39;100538.22;5052964;28;8834;-76
2022/10/29 07:58:12;;;;;;;;;53.75;44.00;;;;;18.79;57.64;100535.59;5080407;28;8878;-77
2022/10/29 08:00:42;;;;;;;;;57.50;47.00;;;;;18.81;57.75;100528.53;5089462;28;8843;-75
2022/10/29 08:03:12;;;;;;;;;58.75;47.75;;;;;18.88;57.61;100530.16;5089156;28;8932;-73
2022/10/29 08:05:41;;;;;;;;;58.00;47.50;;;;;19.15;57.02;100535.81;5071431;28;8858;-75
2022/10/29 08:08:10;;;;;;;;;56.75;47.00;;;;;19.28;56.79;100535.56;5049982;28;8846;-75
2022/10/29 08:10:40;;;;;;;;;56.75;47.25;;;;;19.44;56.15;100529.94;5068841;28;8857;-76
2022/10/29 08:13:09;;;;;;;;;58.50;48.25;;;;;19.65;55.88;100528.59;5067455;28;8945;-75
2022/10/29 08:15:38;;;;;;;;;60.00;48.00;;;;;19.66;55.52;100527.72;5069056;28;8861;-78
2022/10/29 08:18:14;;;;;;;;;50.75;43.75;;;;;19.93;54.92;100530.66;5068754;28;9686;-77
2022/10/29 08:20:43;;;;;;;;;64.25;50.00;;;;;20.02;54.55;100523.38;5033418;28;8818;-73
2022/10/29 08:23:11;;;;;;;;;60.25;47.00;;;;;20.11;54.30;100524.91;5068415;28;8830;-76
2022/10/29 08:25:42;;;;;;;;;61.25;48.00;;;;;20.27;53.90;100525.44;5033792;28;8854;-76
2022/10/29 08:28:12;;;;;;;;;62.75;49.50;;;;;20.32;53.67;100531.50;5067531;28;8923;-75
2022/10/29 08:30:42;;;;;;;;;59.25;47.75;;;;;20.39;53.35;100529.53;5073391;28;8823;-75
2022/10/29 08:33:11;;;;;;;;;58.25;48.25;;;;;20.52;53.16;100525.66;5088460;28;8855;-77
2022/10/29 08:35:40;;;;;;;;;58.00;47.25;;;;;20.57;53.08;100525.56;5087136;28;8962;-75
2022/10/29 08:38:08;;;;;;;;;59.75;48.00;;;;;20.61;52.81;100517.50;5071755;28;8850;-75
2022/10/29 08:40:49;;;;;;;;;58.75;46.00;;;;;20.80;52.61;100514.38;5068023;28;8850;-76
2022/10/29 08:43:53;;;;;;;;;61.75;47.00;;;;;20.97;52.51;100505.97;5067730;28;8862;-75
2022/10/29 08:46:35;;;;;;;;;59.00;47.50;;;;;20.99;52.29;100509.44;5066488;28;8834;-76
2022/10/29 08:49:11;;;;;;;;;53.00;42.00;;;;;21.05;52.09;100506.59;5090739;28;8878;-73
2022/10/29 08:51:44;;;;;;;;;57.75;46.75;;;;;21.06;51.78;100504.81;5073802;28;8931;-76
2022/10/29 08:54:16;;;;;;;;;57.25;47.00;;;;;21.12;51.44;100496.72;5087380;28;8855;-76
2022/10/29 08:57:05;;;;;;;;;57.50;45.00;;;;;21.22;51.45;100499.03;5066300;28;9017;-74
2022/10/29 08:59:40;;;;;;;;;56.50;46.75;;;;;21.27;51.33;100493.59;5083189;28;8874;-75
2022/10/29 09:02:16;;;;;;;;;62.50;48.00;;;;;21.16;51.63;100485.94;5067240;28;9770;-75
2022/10/29 09:04:44;;;;;;;;;58.50;46.75;;;;;21.23;51.15;100487.50;5065856;28;8989;-75
2022/10/29 09:07:32;;;;;;;;;61.50;48.00;;;;;21.32;50.84;100488.16;5044599;28;8851;-75
2022/10/29 09:10:09;;;;;;;;;62.75;50.00;;;;;21.33;51.27;100493.41;5028496;28;8856;-76
2022/10/29 09:13:07;;;;;;;;;62.75;49.75;;;;;21.48;51.19;100492.13;5044780;28;8852;-76
2022/10/29 09:16:00;;;;;;;;;64.00;49.00;;;;;21.62;50.65;100491.69;4966286;28;8852;-74
2022/10/29 09:18:43;;;;;;;;;58.50;47.75;;;;;21.55;50.43;100490.13;4966450;28;9633;-76
2022/10/29 09:21:24;;;;;;;;;62.00;50.00;;;;;21.57;50.71;100483.88;4965534;28;8882;-78
2022/10/29 09:24:07;;;;;;;;;62.25;49.00;;;;;21.68;50.65;100482.66;4965968;28;9030;-77
2022/10/29 09:26:49;;;;;;;;;59.50;48.00;;;;;21.77;50.66;100483.22;4966139;28;8854;-76
2022/10/29 09:29:44;;;;;;;;;61.00;49.00;;;;;21.90;50.29;100486.38;4971995;28;8846;-74
2022/10/29 09:32:20;;;;;;;;;55.50;45.75;;;;;21.84;49.98;100478.59;4985526;28;8872;-75
2022/10/29 09:34:52;;;;;;;;;58.25;46.75;;;;;21.86;50.10;100476.78;4985310;28;8846;-76
2022/10/29 09:37:25;;;;;;;;;63.25;49.50;;;;;21.89;50.14;100481.09;4986302;28;8862;-76
2022/10/29 09:39:55;;;;;;;;;56.25;46.75;;;;;21.90;50.17;100481.06;4988535;28;8872;-78
2022/10/29 09:42:36;;;;;;;;;57.75;46.50;;;;;22.10;50.20;100476.91;4954576;28;8876;-74
2022/10/29 09:45:13;;;;;;;;;65.00;50.75;;;;;22.03;50.03;100478.03;4987913;28;8859;-76
2022/10/29 09:47:50;;;;;;;;;62.00;49.50;;;;;22.06;50.18;100472.59;4988317;28;8861;-76
2022/10/29 09:50:28;;;;;;;;;50.00;42.00;;;;;22.16;50.13;100472.22;4969517;28;8853;-75
2022/10/29 09:52:57;;;;;;;;;64.25;49.75;;;;;22.14;49.76;100471.41;5035040;28;9604;-77
2022/10/29 09:55:34;;;;;;;;;58.25;47.50;;;;;22.20;50.06;100465.91;5066893;28;8956;-75
2022/10/29 09:58:02;;;;;;;;;61.00;48.25;;;;;22.21;49.61;100458.78;5067297;28;9757;-76
2022/10/29 10:00:33;;;;;;;;;59.25;46.75;;;;;22.23;49.72;100456.97;5067691;28;8862;-74
2022/10/29 10:03:06;;;;;;;;;61.75;49.25;;;;;22.31;49.83;100448.75;5051532;28;8995;-75
2022/10/29 10:05:56;;;;;;;;;62.00;49.75;;;;;22.48;49.64;100440.19;5068631;28;8854;-75
2022/10/29 10:08:25;;;;;;;;;60.75;48.25;;;;;22.50;49.32;100444.53;5069493;28;8882;-76
2022/10/29 10:10:56;;;;;;;;;61.75;51.25;;;;;22.56;48.68;100436.31;5069222;28;8854;-77
2022/10/29 10:13:26;;;;;;;;;61.25;50.75;;;;;22.64;49.02;100443.16;5070032;28;8894;-77
2022/10/29 10:15:58;;;;;;;;;59.75;46.75;;;;;22.68;49.14;100443.00;5070619;28;8869;-76
2022/10/29 10:18:38;;;;;;;;;63.50;49.75;;;;;22.75;48.96;100427.69;5068892;28;8854;-75
2022/10/29 10:21:09;;;;;;;;;59.50;49.25;;;;;22.82;48.12;100426.56;5073363;28;8846;-76
2022/10/29 10:23:47;;;;;;;;;62.00;49.25;;;;;23.03;47.78;100424.00;5071684;28;8878;-74
2022/10/29 10:26:35;;;;;;;;;53.00;44.25;;;;;23.05;47.88;100427.50;5071407;28;8956;-78
2022/10/29 10:29:06;;;;;;;;;57.25;45.25;;;;;22.94;47.77;100419.91;5070991;28;9686;-76
2022/10/29 10:31:36;;;;;;;;;55.25;44.25;;;;;22.93;48.35;100420.81;5070957;28;8847;-75
2022/10/29 10:34:13;;;;;;;;;48.25;39.50;;;;;23.07;47.84;100420.34;5035463;28;8885;-76
2022/10/29 10:36:45;;;;;;;;;51.00;42.50;;;;;23.14;47.64;100414.72;5071412;28;8846;-75
2022/10/29 10:39:24;;;;;;;;;54.50;45.00;;;;;23.21;47.31;100419.78;5073269;28;8862;-75
2022/10/29 10:41:55;;;;;;;;;53.50;41.75;;;;;23.21;47.68;100411.81;5078357;28;8843;-76
2022/10/29 10:44:24;;;;;;;;;55.50;46.25;;;;;23.26;47.17;100410.72;5091668;28;8968;-76
2022/10/29 10:46:57;;;;;;;;;53.75;44.50;;;;;23.33;46.95;100406.03;5089933;28;9605;-76
2022/10/29 10:49:32;;;;;;;;;57.75;45.25;;;;;23.49;47.32;100408.94;5091383;28;8840;-73
2022/10/29 10:52:04;;;;;;;;;54.25;42.75;;;;;23.53;46.57;100410.53;5090080;28;8874;-75
2022/10/29 10:54:36;;;;;;;;;55.50;45.25;;;;;23.42;46.40;100400.34;5090815;28;8908;-76
2022/10/29 10:57:19;;;;;;;;;60.00;45.50;;;;;23.70;46.03;100394.72;5055481;28;8836;-76
2022/10/29 10:59:55;;;;;;;;;56.00;44.50;;;;;23.81;45.72;100393.47;5082739;28;8838;-77
2022/10/29 11:02:33;;;;;;;;;54.25;44.25;;;;;23.75;45.65;100384.75;5070247;28;8865;-75
2022/10/29 11:05:18;;;;;;;;;52.25;41.75;;;;;23.94;45.04;100384.88;5070068;28;8885;-79
2022/10/29 11:07:54;;;;;;;;;58.25;47.00;;;;;23.91;44.79;100387.69;5069740;28;8846;-75
2022/10/29 11:10:31;;;;;;;;;55.25;45.75;;;;;24.01;44.73;100382.84;5069666;28;8971;-78
2022/10/29 11:13:05;;;;;;;;;56.25;45.75;;;;;23.97;44.77;100380.34;5068185;28;8868;-79
2022/10/29 11:15:38;;;;;;;;;52.75;44.25;;;;;24.14;44.39;100377.84;5077518;28;8847;-75
2022/10/29 11:18:18;;;;;;;;;53.00;43.50;;;;;24.21;44.28;100376.63;5071076;28;8840;-74
2022/10/29 11:20:52;;;;;;;;;57.00;46.00;;;;;24.21;44.34;100373.09;5089615;28;8843;-77
2022/10/29 11:23:29;;;;;;;;;56.00;44.50;;;;;24.15;44.45;100368.03;5089387;28;8913;-75
2022/10/29 11:26:07;;;;;;;;;56.25;46.25;;;;;24.16;44.56;100370.66;5089723;28;8852;-76
2022/10/29 11:28:40;;;;;;;;;57.25;47.25;;;;;24.12;44.61;100374.34;5085686;28;8842;-77
2022/10/29 11:31:18;;;;;;;;;55.75;45.75;;;;;24.05;44.70;100371.09;5086638;27;8930;-76
2022/10/29 11:33:57;;;;;;;;;59.75;47.50;;;;;24.06;44.69;100370.16;5071999;28;8985;-76
2022/10/29 11:36:30;;;;;;;;;55.25;46.00;;;;;24.01;44.80;100366.84;5070393;28;8846;-77
2022/10/29 11:39:04;;;;;;;;;50.00;42.00;;;;;23.97;45.41;100359.03;5068880;28;8862;-78
2022/10/29 11:41:40;;;;;;;;;62.00;49.00;;;;;23.90;45.45;100363.78;5072397;28;8893;-79